Time;durP1;ratioP1;P1;durP2;ratioP2;P2;SDS_P1;SDS_P2;PMS_P1;PMS_P2;Temp;Humidity;BMP_temperature;BMP_pressure;BME280_temperature;BME280_humidity;BME280_pressure;Samples;Min_cycle;Max_cycle;Signal;HPM_P1;HPM_P2
2022/01/25 00:10:39;;;;;;;9.70;9.40;;;0.00;99.90;;;;;;5055942;28;20211;-77
2022/01/25 00:24:22;;;;;;;10.20;9.90;;;0.00;99.90;;;;;;5073817;28;20234;-77
2022/01/25 00:27:05;;;;;;;10.13;9.83;;;0.00;99.90;;;;;;5074843;28;20289;-76
2022/01/25 00:29:47;;;;;;;10.30;10.00;;;0.00;99.90;;;;;;5074698;28;20225;-77
2022/01/25 00:32:16;;;;;;;10.23;9.93;;;0.00;99.90;;;;;;5074653;28;20253;-77
2022/01/25 00:34:44;;;;;;;10.27;9.97;;;0.00;99.90;;;;;;5074091;28;20215;-78
2022/01/25 00:37:11;;;;;;;10.20;9.90;;;0.00;99.90;;;;;;5073896;28;20262;-78
2022/01/25 00:39:41;;;;;;;10.20;9.90;;;0.00;99.90;;;;;;5074283;28;20222;-77
2022/01/25 00:42:10;;;;;;;10.13;9.83;;;0.00;99.90;;;;;;5085125;28;20233;-77
2022/01/25 00:44:40;;;;;;;10.17;9.87;;;0.00;99.90;;;;;;5090874;28;20217;-77
2022/01/25 00:47:09;;;;;;;10.40;10.10;;;0.00;99.90;;;;;;5089816;28;20328;-78
2022/01/25 00:49:40;;;;;;;10.27;9.97;;;0.10;99.90;;;;;;5083787;28;20234;-79
2022/01/25 00:52:21;;;;;;;10.27;9.97;;;0.00;99.90;;;;;;5083327;28;20225;-78
2022/01/25 00:54:52;;;;;;;10.60;10.30;;;0.00;99.90;;;;;;5082048;28;20264;-78
2022/01/25 00:57:20;;;;;;;10.30;10.00;;;0.00;99.90;;;;;;5081702;28;20245;-78
2022/01/25 00:59:48;;;;;;;10.37;10.07;;;0.00;99.90;;;;;;5080932;28;20331;-79
2022/01/25 01:02:18;;;;;;;10.10;9.80;;;0.00;99.90;;;;;;5079192;28;20257;-77
2022/01/25 01:04:46;;;;;;;10.20;9.90;;;-0.10;99.90;;;;;;5079193;28;20238;-78
2022/01/25 01:07:16;;;;;;;10.23;9.93;;;-0.10;99.90;;;;;;5081244;28;20234;-78
2022/01/25 01:09:47;;;;;;;10.20;9.90;;;-0.10;99.90;;;;;;5079178;28;20240;-78
2022/01/25 01:12:38;;;;;;;10.30;10.00;;;-0.10;99.90;;;;;;5073523;28;20254;-78
2022/01/25 01:15:18;;;;;;;10.43;10.13;;;-0.10;99.90;;;;;;5062297;28;20278;-79
2022/01/25 01:31:47;;;;;;;10.50;10.20;;;-0.20;99.90;;;;;;5058829;28;20352;-78
2022/01/25 01:37:35;;;;;;;10.60;10.30;;;-0.20;99.90;;;;;;5023204;28;20288;-77
2022/01/25 01:40:38;;;;;;;10.40;10.10;;;-0.40;99.90;;;;;;5059931;28;20254;-78
2022/01/25 01:43:28;;;;;;;10.47;10.17;;;-0.40;99.90;;;;;;5058586;28;20241;-78
2022/01/25 01:46:01;;;;;;;10.60;10.30;;;-0.40;99.90;;;;;;5058016;28;20343;-78
2022/01/25 01:48:31;;;;;;;10.80;10.50;;;-0.40;99.90;;;;;;5058089;28;21051;-77
2022/01/25 01:51:06;;;;;;;10.70;10.40;;;-0.40;99.90;;;;;;5057901;28;20313;-78
2022/01/25 01:53:35;;;;;;;10.60;10.30;;;-0.50;99.90;;;;;;5057573;28;20247;-79
2022/01/25 01:56:03;;;;;;;10.40;10.10;;;-0.50;99.90;;;;;;5057453;28;20237;-77
2022/01/25 01:58:31;;;;;;;10.20;9.90;;;-0.50;99.90;;;;;;5058347;28;20223;-77
2022/01/25 02:01:00;;;;;;;10.57;10.27;;;-0.50;99.90;;;;;;5058240;28;21003;-77
2022/01/25 02:03:28;;;;;;;10.70;10.40;;;-0.50;99.90;;;;;;5058551;28;20288;-78
2022/01/25 02:05:56;;;;;;;10.50;10.20;;;-0.50;99.90;;;;;;5075344;28;20288;-77
2022/01/25 02:08:24;;;;;;;10.33;10.03;;;-0.50;99.90;;;;;;5079746;28;20981;-77
2022/01/25 02:10:52;;;;;;;10.40;10.10;;;-0.50;99.90;;;;;;5080230;28;20221;-76
2022/01/25 02:13:20;;;;;;;10.30;10.00;;;-0.50;99.90;;;;;;5079960;28;20238;-76
2022/01/25 02:15:49;;;;;;;10.40;10.10;;;-0.50;99.90;;;;;;5079997;28;20226;-77
2022/01/25 02:23:52;;;;;;;10.37;10.07;;;-0.50;99.90;;;;;;5071448;28;20404;-78
2022/01/25 02:26:20;;;;;;;10.03;9.73;;;-0.50;99.90;;;;;;5071013;28;20257;-78
2022/01/25 02:28:47;;;;;;;10.07;9.77;;;-0.50;99.90;;;;;;5072922;28;20231;-78
2022/01/25 02:31:17;;;;;;;9.87;9.57;;;-0.50;99.90;;;;;;5074566;28;20226;-78
2022/01/25 02:33:46;;;;;;;10.20;9.90;;;-0.50;99.90;;;;;;5074402;28;20249;-78
2022/01/25 02:36:24;;;;;;;10.40;10.10;;;-0.60;99.90;;;;;;5074426;28;20229;-78
2022/01/25 02:38:52;;;;;;;10.00;9.70;;;-0.70;99.90;;;;;;5071722;28;20230;-77
2022/01/25 02:41:20;;;;;;;10.27;9.97;;;-0.60;99.90;;;;;;5072321;28;20260;-77
2022/01/25 02:43:48;;;;;;;10.10;9.80;;;-0.60;99.90;;;;;;5072115;28;20300;-77
2022/01/25 02:48:29;;;;;;;10.30;10.00;;;-0.70;99.90;;;;;;5120623;22;20741;-81
2022/01/25 02:49:08;;;;;;;10.00;9.70;;;-0.70;99.90;;;;;;5067241;28;20234;-80
2022/01/25 02:51:47;;;;;;;10.20;9.90;;;-0.70;99.90;;;;;;5069405;28;20238;-81
2022/01/25 02:54:18;;;;;;;10.50;10.20;;;-0.70;99.90;;;;;;5090669;28;20267;-79
2022/01/25 02:56:48;;;;;;;10.30;10.00;;;-0.70;99.90;;;;;;5067198;28;20212;-78
2022/01/25 02:59:18;;;;;;;10.13;9.83;;;-0.70;99.90;;;;;;5058490;28;20210;-79
2022/01/25 03:01:48;;;;;;;10.20;9.90;;;-0.70;99.90;;;;;;5057781;28;20258;-78
2022/01/25 03:04:19;;;;;;;10.20;9.90;;;-0.70;99.90;;;;;;5052884;28;20253;-79
2022/01/25 03:06:56;;;;;;;10.60;10.30;;;-0.70;99.90;;;;;;5058360;28;20231;-81
2022/01/25 03:09:24;;;;;;;10.30;10.00;;;-0.70;99.90;;;;;;5047505;28;20253;-79
2022/01/25 03:11:54;;;;;;;10.10;9.80;;;-0.70;99.90;;;;;;5049116;28;20235;-79
2022/01/25 03:14:26;;;;;;;10.40;10.10;;;-0.70;99.90;;;;;;5049829;28;20231;-80
2022/01/25 03:17:06;;;;;;;10.30;10.00;;;-0.70;99.90;;;;;;5049896;28;20287;-80
2022/01/25 03:19:50;;;;;;;10.30;10.00;;;-0.70;99.90;;;;;;5061883;28;20214;-80
2022/01/25 03:22:42;;;;;;;10.37;10.07;;;-0.80;99.90;;;;;;5047402;28;20234;-79
2022/01/25 03:25:12;;;;;;;10.33;10.03;;;-0.80;99.90;;;;;;5056668;28;20249;-79
2022/01/25 03:27:41;;;;;;;10.10;9.80;;;-0.90;99.90;;;;;;5049496;28;20226;-80
2022/01/25 03:30:10;;;;;;;10.20;9.90;;;-0.90;99.90;;;;;;5047394;28;20247;-81
2022/01/25 03:32:41;;;;;;;10.20;9.90;;;-0.90;99.90;;;;;;5054226;28;20238;-79
2022/01/25 03:35:10;;;;;;;10.20;9.90;;;-1.00;99.90;;;;;;5057522;28;20252;-80
2022/01/25 03:37:41;;;;;;;10.23;9.93;;;-1.00;99.90;;;;;;5053818;28;20226;-81
2022/01/25 03:40:11;;;;;;;10.20;9.90;;;-1.00;99.90;;;;;;5046669;28;20226;-80
2022/01/25 03:42:39;;;;;;;10.40;10.10;;;-1.10;99.90;;;;;;5047246;28;20237;-80
2022/01/25 03:45:17;;;;;;;10.40;10.10;;;-1.10;99.90;;;;;;5046035;28;20296;-80
2022/01/25 03:47:58;;;;;;;10.43;10.13;;;-1.10;99.90;;;;;;5048141;28;20320;-80
2022/01/25 03:50:25;;;;;;;10.67;10.37;;;-1.10;99.90;;;;;;5047877;28;20265;-80
2022/01/25 03:52:56;;;;;;;10.50;10.20;;;-1.20;99.90;;;;;;5046649;28;20316;-80
2022/01/25 03:55:24;;;;;;;10.40;10.10;;;-1.10;99.90;;;;;;5045958;28;20319;-80
2022/01/25 03:57:52;;;;;;;10.40;10.10;;;-1.10;99.90;;;;;;5045649;28;20320;-79
2022/01/25 04:00:21;;;;;;;10.47;10.17;;;-1.10;99.90;;;;;;5045677;28;20229;-80
2022/01/25 04:02:55;;;;;;;10.30;10.00;;;-1.10;99.90;;;;;;5045785;28;20234;-80
2022/01/25 04:05:34;;;;;;;10.27;9.97;;;-1.10;99.90;;;;;;5045781;28;20266;-78
2022/01/25 04:08:08;;;;;;;10.27;9.97;;;-1.10;99.90;;;;;;5065203;28;20230;-81
2022/01/25 04:10:37;;;;;;;10.23;9.93;;;-1.10;99.90;;;;;;5064899;28;20230;-81
2022/01/25 04:13:06;;;;;;;10.30;10.00;;;-1.10;99.90;;;;;;5064884;28;20235;-80
2022/01/25 04:15:36;;;;;;;10.23;9.93;;;-1.10;99.90;;;;;;5065291;28;20238;-80
2022/01/25 04:18:21;;;;;;;10.20;9.90;;;-1.10;99.90;;;;;;5066098;28;20233;-80
2022/01/25 04:20:58;;;;;;;10.50;10.20;;;-1.10;99.90;;;;;;5069210;28;20226;-81
2022/01/25 04:26:14;;;;;;;10.40;10.10;;;-1.20;99.90;;;;;;5068783;28;20230;-81
2022/01/25 04:28:47;;;;;;;10.57;10.27;;;-1.20;99.90;;;;;;5068963;28;20237;-80
2022/01/25 04:31:19;;;;;;;10.70;10.40;;;-1.30;99.90;;;;;;5074959;28;20291;-80
2022/01/25 04:34:07;;;;;;;10.47;10.17;;;-1.40;99.90;;;;;;5080725;28;20293;-79
2022/01/25 04:48:52;;;;;;;10.57;10.27;;;-1.40;99.90;;;;;;5074995;28;20241;-81
2022/01/25 04:51:08;;;;;;;10.50;10.20;;;-1.60;99.90;;;;;;5073850;28;20220;-81
2022/01/25 04:53:46;;;;;;;10.57;10.27;;;-1.70;99.90;;;;;;5073101;28;20221;-81
2022/01/25 04:56:23;;;;;;;10.43;10.13;;;-1.70;99.90;;;;;;5073295;28;20256;-81
2022/01/25 04:58:58;;;;;;;10.57;10.27;;;-1.70;99.90;;;;;;5074666;28;20234;-82
2022/01/25 05:01:30;;;;;;;10.60;10.30;;;-1.80;99.90;;;;;;5070272;28;20215;-82
2022/01/25 05:04:03;;;;;;;10.43;10.13;;;-1.80;99.90;;;;;;5074602;28;20230;-81
2022/01/25 05:06:32;;;;;;;10.60;10.30;;;-1.80;99.90;;;;;;5073917;28;20316;-80
2022/01/25 05:09:08;;;;;;;10.43;10.13;;;-1.70;99.90;;;;;;5075625;28;20248;-80
2022/01/25 05:11:45;;;;;;;10.40;10.10;;;-1.70;99.90;;;;;;5078505;28;20217;-80
2022/01/25 05:14:24;;;;;;;10.50;10.20;;;-1.70;99.90;;;;;;5075943;28;20244;-81
2022/01/25 05:16:56;;;;;;;10.60;10.30;;;-1.70;99.90;;;;;;5069395;28;20249;-81
2022/01/25 05:22:03;;;;;;;10.27;9.97;;;-1.70;99.90;;;;;;5068775;28;20289;-81
2022/01/25 05:22:24;;;;;;;10.17;9.87;;;-1.70;99.90;;;;;;5067192;28;20241;-81
2022/01/25 05:24:55;;;;;;;10.53;10.23;;;-1.80;99.90;;;;;;5074662;28;20210;-79
2022/01/25 05:27:30;;;;;;;10.23;9.93;;;-1.80;99.90;;;;;;5080001;28;20257;-81
2022/01/25 05:29:57;;;;;;;10.47;10.17;;;-1.90;99.90;;;;;;5078043;28;20234;-80
2022/01/25 05:32:25;;;;;;;10.67;10.37;;;-1.90;99.90;;;;;;5078142;28;20226;-80
2022/01/25 05:34:53;;;;;;;10.30;10.00;;;-1.90;99.90;;;;;;5077826;28;20245;-80
2022/01/25 05:37:22;;;;;;;10.20;9.90;;;-1.90;99.90;;;;;;5073222;28;20232;-81
2022/01/25 05:39:52;;;;;;;10.53;10.23;;;-2.00;99.90;;;;;;5073725;28;20264;-79
2022/01/25 05:45:39;;;;;;;10.17;9.87;;;-2.00;99.90;;;;;;5156383;27;1468291;-80
2022/01/25 05:48:07;;;;;;;10.47;10.17;;;-2.00;99.90;;;;;;5174716;27;20236;-80
2022/01/25 05:50:35;;;;;;;10.50;10.20;;;-1.90;99.90;;;;;;5168548;27;20222;-80
2022/01/25 05:53:03;;;;;;;10.07;9.77;;;-1.90;99.90;;;;;;5163704;27;20232;-81
2022/01/25 05:55:32;;;;;;;9.70;9.40;;;-1.80;99.90;;;;;;5162828;27;20238;-81
2022/01/25 05:58:02;;;;;;;9.93;9.63;;;-1.80;99.90;;;;;;5162249;27;20236;-80
2022/01/25 06:00:35;;;;;;;10.10;9.80;;;-1.80;99.90;;;;;;5162982;27;20227;-81
2022/01/25 06:03:05;;;;;;;9.97;9.67;;;-1.80;99.90;;;;;;5162120;27;20224;-81
2022/01/25 06:05:33;;;;;;;9.80;9.50;;;-1.70;99.90;;;;;;5161768;27;20243;-81
2022/01/25 06:08:01;;;;;;;9.90;9.60;;;-1.70;99.90;;;;;;5162018;27;20226;-81
2022/01/25 06:10:30;;;;;;;10.07;9.77;;;-1.70;99.90;;;;;;5161946;27;20228;-81
2022/01/25 06:13:00;;;;;;;10.10;9.80;;;-1.70;99.90;;;;;;5166417;27;20213;-81
2022/01/25 06:15:28;;;;;;;9.77;9.47;;;-1.70;99.90;;;;;;5163323;27;20236;-81
2022/01/25 06:17:59;;;;;;;9.80;9.50;;;-1.60;99.90;;;;;;5165259;27;20233;-81
2022/01/25 06:20:28;;;;;;;9.40;9.10;;;-1.50;99.90;;;;;;5163269;27;20235;-81
2022/01/25 06:22:56;;;;;;;9.13;8.83;;;-1.50;99.90;;;;;;5162305;27;20261;-80
2022/01/25 06:25:26;;;;;;;9.37;9.07;;;-1.40;99.90;;;;;;5164422;27;20243;-81
2022/01/25 06:27:55;;;;;;;9.50;9.20;;;-1.30;99.90;;;;;;5162621;27;20234;-81
2022/01/25 06:30:25;;;;;;;9.50;9.20;;;-1.30;99.90;;;;;;5160845;27;20239;-81
2022/01/25 06:32:55;;;;;;;9.20;8.90;;;-1.20;99.90;;;;;;5160407;27;20233;-81
2022/01/25 06:35:28;;;;;;;9.20;8.90;;;-1.20;99.90;;;;;;5160508;27;20239;-81
2022/01/25 06:37:56;;;;;;;9.37;9.07;;;-1.20;99.90;;;;;;5163351;27;20223;-81
2022/01/25 06:40:25;;;;;;;9.33;9.03;;;-1.20;99.90;;;;;;5162024;27;20235;-81
2022/01/25 06:42:54;;;;;;;9.33;9.03;;;-1.20;99.90;;;;;;5161356;27;20218;-81
2022/01/25 06:45:24;;;;;;;10.43;10.13;;;-1.20;99.90;;;;;;5161246;27;20230;-81
2022/01/25 06:47:53;;;;;;;10.40;10.10;;;-1.10;99.90;;;;;;5161068;27;20227;-81
2022/01/25 06:50:25;;;;;;;10.20;9.90;;;-1.10;99.90;;;;;;5160647;27;20227;-81
2022/01/25 06:52:55;;;;;;;10.30;10.00;;;-1.00;99.90;;;;;;5158527;27;20225;-81
2022/01/25 06:55:23;;;;;;;10.30;10.00;;;-1.00;99.90;;;;;;5151315;27;20252;-80
2022/01/25 06:57:51;;;;;;;9.93;9.63;;;-1.00;99.90;;;;;;5145099;27;20235;-81
2022/01/25 07:00:22;;;;;;;10.40;10.10;;;-1.00;99.90;;;;;;5129848;27;20242;-81
2022/01/25 07:02:51;;;;;;;10.53;10.23;;;-0.90;99.90;;;;;;5124163;27;20235;-80
2022/01/25 07:05:19;;;;;;;10.40;10.10;;;-0.90;99.90;;;;;;5124293;28;20293;-81
2022/01/25 07:07:48;;;;;;;10.30;10.00;;;-0.90;99.90;;;;;;5145030;27;20234;-81
2022/01/25 07:10:17;;;;;;;11.10;10.70;;;-0.90;99.90;;;;;;5145108;27;20227;-80
2022/01/25 07:12:45;;;;;;;10.43;10.13;;;-0.90;99.90;;;;;;5144212;27;20231;-79
2022/01/25 07:15:14;;;;;;;10.30;10.00;;;-0.90;99.90;;;;;;5146230;27;20236;-81
2022/01/25 07:17:42;;;;;;;9.97;9.67;;;-1.00;99.90;;;;;;5149399;27;20229;-81
2022/01/25 07:20:12;;;;;;;10.30;10.00;;;-0.90;99.90;;;;;;5158104;27;20408;-82
2022/01/25 07:22:42;;;;;;;10.10;9.80;;;-0.90;99.90;;;;;;5158885;27;20266;-81
2022/01/25 07:25:13;;;;;;;10.17;9.87;;;-0.90;99.90;;;;;;5146234;27;20239;-81
2022/01/25 07:27:42;;;;;;;10.27;9.97;;;-0.80;99.90;;;;;;5147867;27;20282;-82
2022/01/25 07:30:10;;;;;;;10.20;9.90;;;-0.80;99.90;;;;;;5145367;27;20695;-83
2022/01/25 07:32:38;;;;;;;10.30;10.00;;;-0.80;99.90;;;;;;5147439;27;21014;-85
2022/01/25 07:35:09;;;;;;;10.10;9.80;;;-0.70;99.90;;;;;;5146437;27;20232;-84
2022/01/25 07:37:38;;;;;;;9.93;9.63;;;-0.70;99.90;;;;;;5146135;27;20238;-83
2022/01/25 07:40:07;;;;;;;10.00;9.70;;;-0.70;99.90;;;;;;5146281;27;20323;-83
2022/01/25 07:42:39;;;;;;;10.27;9.97;;;-0.70;99.90;;;;;;5146849;27;20223;-83
2022/01/25 07:45:11;;;;;;;10.00;9.70;;;-0.60;99.90;;;;;;5157103;27;20227;-83
2022/01/25 07:47:39;;;;;;;9.77;9.47;;;-0.60;99.90;;;;;;5155282;27;20243;-83
2022/01/25 07:50:09;;;;;;;10.00;9.70;;;-0.60;99.90;;;;;;5152102;27;20215;-82
2022/01/25 07:52:37;;;;;;;9.93;9.63;;;-0.60;99.90;;;;;;5152834;27;20273;-83
2022/01/25 07:55:08;;;;;;;9.90;9.60;;;-0.60;99.90;;;;;;5149915;27;20232;-82
2022/01/25 07:57:37;;;;;;;10.20;9.90;;;-0.60;99.90;;;;;;5144029;27;20242;-82
2022/01/25 08:00:07;;;;;;;10.20;9.90;;;-0.60;99.90;;;;;;5146159;27;20239;-82
2022/01/25 08:02:35;;;;;;;10.50;10.20;;;-0.60;99.90;;;;;;5147228;27;20230;-83
2022/01/25 08:05:04;;;;;;;10.00;9.70;;;-0.60;99.90;;;;;;5148499;27;20234;-83
2022/01/25 08:07:32;;;;;;;10.00;9.70;;;-0.50;99.90;;;;;;5141329;27;20208;-83
2022/01/25 08:10:00;;;;;;;10.00;9.70;;;-0.50;99.90;;;;;;5138234;27;20307;-82
2022/01/25 08:12:28;;;;;;;10.00;9.70;;;-0.50;99.90;;;;;;5124375;27;20235;-82
2022/01/25 08:14:59;;;;;;;9.77;9.47;;;-0.50;99.90;;;;;;5123173;27;20236;-83
2022/01/25 08:17:27;;;;;;;9.93;9.63;;;-0.40;99.90;;;;;;5123573;27;20240;-82
2022/01/25 08:19:55;;;;;;;9.60;9.30;;;-0.40;99.90;;;;;;5122964;27;20240;-83
2022/01/25 08:22:24;;;;;;;9.80;9.50;;;-0.40;99.90;;;;;;5122920;27;20243;-82
2022/01/25 08:24:52;;;;;;;9.60;9.30;;;-0.40;99.90;;;;;;5143308;27;20330;-83
2022/01/25 08:27:23;;;;;;;9.70;9.40;;;-0.40;99.90;;;;;;5143960;27;20239;-83
2022/01/25 08:29:52;;;;;;;9.70;9.40;;;-0.30;99.90;;;;;;5145278;27;20341;-83
2022/01/25 08:32:22;;;;;;;9.60;9.30;;;-0.20;99.90;;;;;;5146409;27;20224;-83
2022/01/25 08:34:50;;;;;;;9.70;9.40;;;-0.10;99.90;;;;;;5147200;27;20303;-83
2022/01/25 08:37:18;;;;;;;9.40;9.10;;;-0.10;99.90;;;;;;5145921;27;20247;-83
2022/01/25 08:39:46;;;;;;;10.00;9.70;;;0.00;99.90;;;;;;5143813;27;20231;-83
2022/01/25 08:42:14;;;;;;;10.00;9.70;;;0.00;99.90;;;;;;5145641;27;20224;-82
2022/01/25 08:44:42;;;;;;;9.77;9.47;;;0.00;99.90;;;;;;5144129;27;20773;-83
2022/01/25 08:47:10;;;;;;;9.77;9.47;;;0.00;99.90;;;;;;5144704;27;20255;-82
2022/01/25 08:49:41;;;;;;;9.70;9.40;;;0.10;99.90;;;;;;5146467;27;20224;-81
2022/01/25 08:52:09;;;;;;;9.70;9.40;;;0.10;99.90;;;;;;5144720;27;20325;-81
2022/01/25 08:54:38;;;;;;;9.60;9.30;;;0.10;99.90;;;;;;5144113;27;20240;-83
2022/01/25 08:57:08;;;;;;;9.87;9.57;;;0.10;99.90;;;;;;5125238;27;20235;-82
2022/01/25 08:59:36;;;;;;;9.67;9.37;;;0.20;99.90;;;;;;5135525;27;20262;-81
2022/01/25 09:02:05;;;;;;;9.90;9.60;;;0.20;99.90;;;;;;5139974;27;20221;-79
2022/01/25 09:04:33;;;;;;;9.57;9.27;;;0.20;99.90;;;;;;5132360;27;20242;-81
2022/01/25 09:07:03;;;;;;;9.80;9.50;;;0.20;99.90;;;;;;5128347;27;20232;-80
2022/01/25 09:09:31;;;;;;;9.73;9.43;;;0.10;99.90;;;;;;5125026;28;20233;-82
2022/01/25 09:11:59;;;;;;;9.67;9.37;;;-0.10;99.90;;;;;;5123778;27;20224;-81
2022/01/25 09:14:27;;;;;;;10.00;9.70;;;-0.10;99.90;;;;;;5128517;28;20228;-82
2022/01/25 09:16:55;;;;;;;9.90;9.60;;;-0.20;99.90;;;;;;5127414;28;20236;-83
2022/01/25 09:19:23;;;;;;;9.97;9.67;;;-0.10;99.90;;;;;;5123235;27;20251;-84
2022/01/25 09:25:01;;;;;;;10.20;9.90;;;0.00;99.90;;;;;;5117280;28;20232;-87
2022/01/25 09:27:29;;;;;;;9.90;9.60;;;0.10;99.90;;;;;;5124619;28;20274;-82
2022/01/25 09:29:57;;;;;;;10.27;9.97;;;0.10;99.90;;;;;;5122856;28;20282;-83
2022/01/25 09:32:25;;;;;;;10.07;9.77;;;0.20;99.90;;;;;;5122700;28;20245;-83
2022/01/25 09:34:53;;;;;;;10.20;9.90;;;0.20;99.90;;;;;;5121949;28;20229;-83
2022/01/25 09:37:21;;;;;;;10.10;9.80;;;0.30;99.90;;;;;;5137117;27;20282;-83
2022/01/25 09:39:48;;;;;;;10.40;10.10;;;0.30;99.90;;;;;;5140906;27;20428;-83
2022/01/25 09:42:20;;;;;;;9.83;9.53;;;0.30;99.90;;;;;;5139860;27;20221;-82
2022/01/25 09:44:48;;;;;;;9.80;9.50;;;0.40;99.90;;;;;;5157328;22;20217;-80
2022/01/25 09:47:16;;;;;;;9.73;9.43;;;0.40;99.90;;;;;;5106023;28;20225;-80
2022/01/25 09:49:44;;;;;;;10.10;9.80;;;0.30;99.90;;;;;;5104559;28;20223;-80
2022/01/25 09:52:12;;;;;;;10.10;9.80;;;0.30;99.90;;;;;;5101410;28;20255;-81
2022/01/25 09:54:41;;;;;;;9.50;9.20;;;0.30;99.90;;;;;;5102671;28;20295;-81
2022/01/25 09:57:09;;;;;;;9.60;9.30;;;0.30;99.90;;;;;;5101838;28;20268;-80
2022/01/25 09:59:41;;;;;;;9.90;9.60;;;0.20;99.90;;;;;;5102096;28;20232;-81
2022/01/25 10:02:09;;;;;;;9.70;9.40;;;0.20;99.90;;;;;;5094897;28;20329;-79
2022/01/25 10:04:41;;;;;;;10.03;9.73;;;0.10;99.90;;;;;;5101375;28;20233;-80
2022/01/25 10:07:09;;;;;;;10.03;9.73;;;0.20;99.90;;;;;;5098061;28;20229;-79
2022/01/25 10:09:42;;;;;;;9.80;9.50;;;0.20;99.90;;;;;;5097980;28;20240;-79
2022/01/25 10:12:19;;;;;;;9.90;9.60;;;0.30;99.90;;;;;;5096869;28;20232;-79
2022/01/25 10:15:10;;;;;;;9.73;9.43;;;0.30;99.90;;;;;;5098432;28;20233;-80
2022/01/25 10:17:41;;;;;;;9.70;9.40;;;0.40;99.90;;;;;;5097194;28;20222;-79
2022/01/25 10:20:27;;;;;;;9.80;9.50;;;0.40;99.90;;;;;;5093299;28;20233;-79
2022/01/25 10:22:57;;;;;;;9.90;9.60;;;0.50;99.90;;;;;;5093074;28;20291;-81
2022/01/25 10:25:36;;;;;;;10.43;10.13;;;0.40;99.90;;;;;;5098053;28;20336;-79
2022/01/25 10:28:10;;;;;;;9.97;9.67;;;0.50;99.90;;;;;;5097403;28;20241;-78
2022/01/25 10:30:50;;;;;;;10.20;9.90;;;0.50;99.90;;;;;;5099106;28;20229;-80
2022/01/25 10:33:33;;;;;;;9.90;9.60;;;0.60;99.90;;;;;;5103495;28;20236;-80
2022/01/25 10:36:11;;;;;;;9.90;9.60;;;0.70;99.90;;;;;;5103145;28;20244;-80
2022/01/25 10:38:40;;;;;;;9.90;9.60;;;0.70;99.90;;;;;;5101330;28;20225;-80
2022/01/25 10:41:11;;;;;;;9.50;9.20;;;0.80;99.90;;;;;;5104155;28;20232;-80
2022/01/25 10:43:42;;;;;;;9.67;9.37;;;0.80;99.90;;;;;;5103474;28;20229;-80
2022/01/25 10:46:23;;;;;;;9.70;9.40;;;0.80;99.90;;;;;;5117348;27;20229;-79
2022/01/25 10:48:54;;;;;;;9.70;9.40;;;0.80;99.90;;;;;;5121371;28;20259;-79
2022/01/25 10:51:28;;;;;;;9.90;9.60;;;0.70;99.90;;;;;;5110061;28;20295;-80
2022/01/25 10:54:06;;;;;;;9.97;9.67;;;0.80;99.90;;;;;;5104930;28;20280;-80
2022/01/25 10:56:44;;;;;;;10.10;9.80;;;0.80;99.90;;;;;;5102214;28;20233;-80
2022/01/25 10:59:19;;;;;;;9.90;9.60;;;0.80;99.90;;;;;;5101745;28;20279;-80
2022/01/25 11:01:53;;;;;;;10.00;9.70;;;0.90;99.90;;;;;;5101310;28;20328;-80
2022/01/25 11:04:24;;;;;;;9.80;9.50;;;0.90;99.90;;;;;;5100820;28;21095;-80
2022/01/25 11:06:58;;;;;;;10.10;9.80;;;0.80;99.90;;;;;;5100930;28;20241;-81
2022/01/25 11:09:36;;;;;;;9.67;9.37;;;0.80;99.90;;;;;;5101443;28;20279;-80
2022/01/25 11:12:06;;;;;;;10.00;9.70;;;0.80;99.90;;;;;;5101202;28;20275;-80
2022/01/25 11:14:54;;;;;;;10.10;9.80;;;0.80;99.90;;;;;;5100765;28;20236;-80
2022/01/25 11:17:26;;;;;;;10.07;9.77;;;0.90;99.90;;;;;;5102839;28;20221;-82
2022/01/25 11:19:55;;;;;;;9.90;9.60;;;0.90;99.90;;;;;;5100694;28;20282;-81
2022/01/25 11:22:24;;;;;;;10.10;9.80;;;1.10;99.90;;;;;;5100070;28;20287;-81
2022/01/25 11:24:55;;;;;;;9.97;9.67;;;1.20;99.90;;;;;;5100867;28;20234;-81
2022/01/25 11:27:29;;;;;;;9.33;9.03;;;1.20;99.90;;;;;;5101259;28;20388;-80
2022/01/25 11:29:59;;;;;;;9.70;9.40;;;1.20;99.90;;;;;;5095991;28;20231;-79
2022/01/25 11:32:32;;;;;;;9.70;9.40;;;1.30;99.90;;;;;;5080591;28;20280;-80
2022/01/25 11:35:02;;;;;;;9.23;8.93;;;1.30;99.90;;;;;;5090851;28;20285;-80
2022/01/25 11:37:37;;;;;;;9.33;9.03;;;1.20;99.90;;;;;;5101127;28;20286;-80
2022/01/25 11:40:21;;;;;;;9.33;9.03;;;1.10;99.90;;;;;;5101962;28;20233;-80
2022/01/25 11:42:50;;;;;;;9.70;9.40;;;1.10;99.90;;;;;;5101005;28;20295;-80
2022/01/25 11:45:22;;;;;;;9.47;9.17;;;1.10;99.90;;;;;;5101257;28;20226;-80
2022/01/25 11:47:53;;;;;;;9.70;9.40;;;1.10;99.90;;;;;;5091511;28;20286;-80
2022/01/25 11:50:21;;;;;;;9.77;9.47;;;1.10;99.90;;;;;;5102291;28;20225;-80
2022/01/25 11:52:54;;;;;;;9.73;9.43;;;1.20;99.90;;;;;;5101028;28;20230;-80
2022/01/25 11:55:26;;;;;;;10.10;9.80;;;1.20;99.90;;;;;;5101296;28;20228;-79
2022/01/25 11:57:58;;;;;;;10.10;9.80;;;1.20;99.90;;;;;;5098867;28;20229;-79
2022/01/25 12:00:43;;;;;;;9.73;9.43;;;1.20;99.90;;;;;;5098862;28;20230;-79
2022/01/25 12:03:29;;;;;;;9.90;9.60;;;1.20;99.90;;;;;;5098722;28;20237;-80
2022/01/25 12:06:03;;;;;;;10.03;9.73;;;1.20;99.90;;;;;;5098954;28;20267;-81
2022/01/25 12:11:35;;;;;;;10.00;9.70;;;1.30;99.90;;;;;;5096574;28;20232;-81
2022/01/25 12:14:24;;;;;;;10.00;9.70;;;1.30;99.90;;;;;;5116379;28;20225;-80
2022/01/25 12:16:57;;;;;;;9.80;9.50;;;1.30;99.90;;;;;;5119049;28;20220;-80
2022/01/25 12:19:39;;;;;;;9.80;9.50;;;1.30;99.90;;;;;;5119269;28;20251;-78
2022/01/25 12:22:14;;;;;;;9.67;9.37;;;1.30;99.90;;;;;;5118227;28;20244;-79
2022/01/25 12:25:03;;;;;;;9.83;9.53;;;1.40;99.90;;;;;;5098611;28;20348;-80
2022/01/25 12:27:53;;;;;;;10.00;9.70;;;1.40;99.90;;;;;;5098416;28;20282;-79
2022/01/25 12:30:34;;;;;;;10.00;9.70;;;1.40;99.90;;;;;;5098767;28;20256;-80
2022/01/25 12:33:04;;;;;;;9.97;9.67;;;1.40;99.90;;;;;;5093126;28;20287;-79
2022/01/25 12:35:44;;;;;;;10.50;10.20;;;1.40;99.90;;;;;;5098089;28;20237;-79
2022/01/25 12:38:19;;;;;;;10.47;10.17;;;1.40;99.90;;;;;;5100974;28;20229;-79
2022/01/25 12:41:04;;;;;;;10.40;10.10;;;1.40;99.90;;;;;;5118030;28;20299;-79
2022/01/25 12:43:35;;;;;;;10.00;9.70;;;1.40;99.90;;;;;;5096543;28;20264;-79
2022/01/25 12:46:08;;;;;;;10.10;9.80;;;1.40;99.90;;;;;;5098487;28;20237;-79
2022/01/25 12:48:41;;;;;;;10.63;10.33;;;1.40;99.90;;;;;;5098200;28;20225;-79
2022/01/25 12:51:13;;;;;;;10.60;10.30;;;1.30;99.90;;;;;;5100462;28;20293;-79
2022/01/25 12:53:44;;;;;;;10.50;10.20;;;1.40;99.90;;;;;;5098563;28;20271;-79
2022/01/25 12:56:16;;;;;;;10.40;10.10;;;1.30;99.90;;;;;;5098297;28;20290;-79
2022/01/25 12:58:46;;;;;;;10.47;10.17;;;1.30;99.90;;;;;;5097858;28;20297;-80
2022/01/25 13:01:16;;;;;;;10.50;10.20;;;1.30;99.90;;;;;;5097591;28;20237;-79
2022/01/25 13:03:46;;;;;;;10.17;9.87;;;1.30;99.90;;;;;;5094708;28;20290;-80
2022/01/25 13:06:18;;;;;;;10.40;10.10;;;1.30;99.90;;;;;;5096243;28;20776;-80
2022/01/25 13:08:55;;;;;;;10.10;9.80;;;1.30;99.90;;;;;;5097724;28;20240;-79
2022/01/25 13:11:40;;;;;;;10.27;9.97;;;1.30;99.90;;;;;;5097750;28;20243;-79
2022/01/25 13:14:31;;;;;;;10.33;10.03;;;1.30;99.90;;;;;;5097503;28;20233;-79
2022/01/25 13:17:00;;;;;;;10.40;10.10;;;1.30;99.90;;;;;;5097454;28;20217;-79
2022/01/25 13:19:35;;;;;;;10.10;9.80;;;1.40;99.90;;;;;;5097494;28;20230;-79
2022/01/25 13:22:10;;;;;;;10.47;10.17;;;1.30;99.90;;;;;;5097637;28;20233;-79
2022/01/25 13:24:47;;;;;;;10.77;10.47;;;1.30;99.90;;;;;;5098151;28;20324;-80
2022/01/25 13:27:19;;;;;;;10.20;9.90;;;1.30;99.90;;;;;;5097848;28;20329;-78
2022/01/25 13:32:39;;;;;;;9.80;9.50;;;1.40;99.90;;;;;;5118819;28;20209;-79
2022/01/25 13:35:18;;;;;;;10.00;9.70;;;1.40;99.90;;;;;;5114481;28;20283;-80
2022/01/25 13:38:01;;;;;;;9.90;9.60;;;1.40;99.90;;;;;;5097920;28;20235;-80
2022/01/25 13:40:37;;;;;;;10.00;9.70;;;1.40;99.90;;;;;;5097159;28;20251;-79
2022/01/25 13:43:33;;;;;;;10.50;10.20;;;1.30;99.90;;;;;;5098164;28;20232;-79
2022/01/25 13:46:04;;;;;;;10.30;10.00;;;1.30;99.90;;;;;;5097028;28;20232;-79
2022/01/25 13:48:32;;;;;;;10.20;9.90;;;1.30;99.90;;;;;;5098177;28;20234;-79
2022/01/25 13:51:04;;;;;;;9.90;9.60;;;1.30;99.90;;;;;;5100215;28;20209;-79
2022/01/25 13:53:35;;;;;;;10.10;9.80;;;1.30;99.90;;;;;;5121599;28;20286;-80
2022/01/25 13:56:05;;;;;;;10.20;9.90;;;1.30;99.90;;;;;;5122480;28;20233;-79
2022/01/25 13:58:35;;;;;;;9.70;9.40;;;1.30;99.90;;;;;;5117836;28;20288;-79
2022/01/25 14:01:06;;;;;;;10.10;9.80;;;1.20;99.90;;;;;;5099520;28;20225;-79
2022/01/25 14:03:38;;;;;;;9.60;9.30;;;1.30;99.90;;;;;;5098084;28;20252;-79
2022/01/25 14:06:25;;;;;;;10.00;9.70;;;1.40;99.90;;;;;;5101538;28;20299;-79
2022/01/25 14:09:01;;;;;;;10.00;9.70;;;1.20;99.90;;;;;;5100832;28;20229;-80
2022/01/25 14:11:36;;;;;;;9.80;9.50;;;1.20;99.90;;;;;;5102356;28;20233;-79
2022/01/25 14:22:55;;;;;;;9.40;9.10;;;1.00;99.90;;;;;;5098467;28;20255;-79
2022/01/25 14:25:36;;;;;;;9.90;9.60;;;1.10;99.90;;;;;;5098384;28;20247;-79